createdAt,value
2018-12-20T00:00:31.265Z,0
2018-12-20T00:03:31.521Z,0
2018-12-20T00:06:31.143Z,0
2018-12-20T00:09:30.888Z,0
2018-12-20T00:12:30.736Z,0
2018-12-20T00:15:31.290Z,0
2018-12-20T00:18:31.289Z,0
2018-12-20T00:21:31.162Z,0
2018-12-20T00:24:30.919Z,0
2018-12-20T00:27:30.622Z,0
2018-12-20T00:30:31.527Z,0
2018-12-20T00:33:31.275Z,0
2018-12-20T00:36:31.048Z,0
2018-12-20T00:39:30.914Z,0
2018-12-20T00:42:31.002Z,0
2018-12-20T00:45:30.610Z,0
2018-12-20T00:48:30.976Z,0
2018-12-20T00:51:30.915Z,0
2018-12-20T00:54:30.686Z,0
2018-12-20T00:57:32.428Z,0
2018-12-20T01:00:31.039Z,0
2018-12-20T01:03:30.895Z,0
2018-12-20T01:06:30.600Z,0
2018-12-20T01:09:31.177Z,0
2018-12-20T01:12:30.731Z,0
2018-12-20T01:15:31.473Z,0
2018-12-20T01:18:36.682Z,0
2018-12-20T01:21:31.238Z,0
2018-12-20T01:24:31.304Z,0
2018-12-20T01:27:31.020Z,0
2018-12-20T01:30:30.917Z,0
2018-12-20T01:33:30.486Z,0
2018-12-20T01:36:31.424Z,0
2018-12-20T01:39:31.318Z,0
2018-12-20T01:42:30.900Z,0
2018-12-20T01:45:30.619Z,0
2018-12-20T01:48:31.760Z,0
2018-12-20T01:51:30.633Z,0
2018-12-20T01:54:31.593Z,0
2018-12-20T01:57:31.305Z,0
2018-12-20T02:00:31.010Z,0
2018-12-20T02:03:30.835Z,0
2018-12-20T02:06:30.576Z,0
2018-12-20T02:09:31.548Z,0
2018-12-20T02:12:31.356Z,0
2018-12-20T02:15:31.216Z,0
2018-12-20T02:18:31.076Z,0
2018-12-20T02:21:30.992Z,0
2018-12-20T02:24:31.246Z,0
2018-12-20T02:27:31.303Z,0
2018-12-20T02:30:31.497Z,0
2018-12-20T02:33:31.357Z,0
2018-12-20T02:36:31.364Z,0
2018-12-20T02:39:31.392Z,0
2018-12-20T02:42:31.452Z,0
2018-12-20T02:45:31.517Z,0
2018-12-20T02:48:37.610Z,0
2018-12-20T02:51:31.843Z,0
2018-12-20T02:54:30.824Z,0
2018-12-20T02:57:30.892Z,0
2018-12-20T03:00:30.987Z,0
2018-12-20T03:03:31.259Z,0
2018-12-20T03:06:31.083Z,0
2018-12-20T03:09:30.906Z,0
2018-12-20T03:12:31.329Z,0
2018-12-20T03:15:36.266Z,0
2018-12-20T03:18:31.437Z,0
2018-12-20T03:21:31.763Z,0
2018-12-20T03:24:31.831Z,0
2018-12-20T03:27:31.285Z,0
2018-12-20T03:30:31.094Z,0
2018-12-20T03:33:31.304Z,0
2018-12-20T03:36:31.283Z,0
2018-12-20T03:39:31.267Z,0
2018-12-20T03:42:31.255Z,0
2018-12-20T03:45:31.726Z,0
2018-12-20T03:48:31.756Z,0
2018-12-20T03:51:31.732Z,0
2018-12-20T03:54:31.731Z,0
2018-12-20T03:57:31.680Z,0
2018-12-20T04:00:31.465Z,0
2018-12-20T04:03:31.235Z,0
2018-12-20T04:06:31.331Z,0
2018-12-20T04:09:31.212Z,0
2018-12-20T04:12:31.308Z,0
2018-12-20T04:15:40.444Z,0
2018-12-20T04:18:31.225Z,0
2018-12-20T04:21:31.081Z,0
2018-12-20T04:24:31.082Z,0
2018-12-20T04:27:30.910Z,0
2018-12-20T04:30:30.507Z,0
2018-12-20T04:33:31.392Z,0
2018-12-20T04:36:31.375Z,0
2018-12-20T04:39:31.351Z,0
2018-12-20T04:42:31.249Z,0
2018-12-20T04:45:30.911Z,0
2018-12-20T04:48:30.552Z,0
2018-12-20T04:51:31.512Z,0
2018-12-20T04:54:31.446Z,0
2018-12-20T04:57:31.662Z,0
2018-12-20T05:00:31.199Z,0
2018-12-20T05:03:31.297Z,0
2018-12-20T05:06:30.831Z,0
2018-12-20T05:09:30.548Z,0
2018-12-20T05:12:31.633Z,0
2018-12-20T05:15:31.802Z,0
2018-12-20T05:18:30.662Z,0
2018-12-20T05:21:31.652Z,0
2018-12-20T05:24:31.387Z,0
2018-12-20T05:27:31.413Z,0
2018-12-20T05:30:31.266Z,0
2018-12-20T05:33:31.626Z,0
2018-12-20T05:36:31.531Z,0
2018-12-20T05:39:31.411Z,0
2018-12-20T05:42:31.277Z,0
2018-12-20T05:45:31.264Z,0
2018-12-20T05:48:31.209Z,0
2018-12-20T05:51:30.901Z,0
2018-12-20T05:54:30.769Z,0
2018-12-20T05:57:32.032Z,0
2018-12-20T06:00:31.165Z,0
2018-12-20T06:03:30.950Z,0
2018-12-20T06:06:30.819Z,0
2018-12-20T06:09:30.626Z,0
2018-12-20T06:12:31.429Z,0
2018-12-20T06:15:31.166Z,0
2018-12-20T06:18:31.328Z,0
2018-12-20T06:21:31.228Z,0
2018-12-20T06:24:30.859Z,0
2018-12-20T06:27:30.569Z,0
2018-12-20T06:30:31.382Z,0
2018-12-20T06:33:31.329Z,0
2018-12-20T06:36:31.058Z,0
2018-12-20T06:39:30.804Z,0
2018-12-20T06:42:30.610Z,0
2018-12-20T06:45:31.273Z,0
2018-12-20T06:48:31.025Z,0
2018-12-20T06:51:30.728Z,1
2018-12-20T06:54:31.741Z,1
2018-12-20T06:57:31.957Z,2
2018-12-20T07:00:30.735Z,4
2018-12-20T07:03:31.603Z,7
2018-12-20T07:06:31.235Z,12
2018-12-20T07:09:30.850Z,18
2018-12-20T07:12:30.692Z,28
2018-12-20T07:15:31.557Z,48
2018-12-20T07:18:31.590Z,77
2018-12-20T07:21:31.675Z,112
2018-12-20T07:24:31.391Z,120
2018-12-20T07:27:31.362Z,123
2018-12-20T07:30:31.129Z,145
2018-12-20T07:33:30.818Z,172
2018-12-20T07:36:30.534Z,196
2018-12-20T07:39:31.131Z,215
2018-12-20T07:42:30.892Z,243
2018-12-20T07:45:30.617Z,244
2018-12-20T07:48:34.790Z,318
2018-12-20T07:51:30.724Z,364
2018-12-20T07:54:31.357Z,352
2018-12-20T07:57:31.218Z,318
2018-12-20T08:00:36.097Z,355
2018-12-20T08:03:30.856Z,333
2018-12-20T08:06:30.668Z,370
2018-12-20T08:09:31.433Z,480
2018-12-20T08:12:31.065Z,547
2018-12-20T08:15:31.113Z,692
2018-12-20T08:18:31.002Z,755
2018-12-20T08:21:30.825Z,796
2018-12-20T08:24:30.656Z,802
2018-12-20T08:27:32.548Z,781
2018-12-20T08:30:31.341Z,642
2018-12-20T08:33:31.432Z,572
2018-12-20T08:36:31.262Z,608
2018-12-20T08:39:31.045Z,506
2018-12-20T08:42:30.840Z,729
2018-12-20T08:45:30.551Z,476
2018-12-20T08:48:31.232Z,642
2018-12-20T08:51:31.077Z,687
2018-12-20T08:54:30.768Z,758
2018-12-20T08:57:30.537Z,791
2018-12-20T09:00:31.326Z,760
2018-12-20T09:03:31.262Z,918
2018-12-20T09:06:31.001Z,1274
2018-12-20T09:09:31.007Z,1327
2018-12-20T09:12:30.742Z,1487
2018-12-20T09:15:31.475Z,1260
2018-12-20T09:18:31.343Z,1303
2018-12-20T09:21:31.054Z,1008
2018-12-20T09:24:30.824Z,999
2018-12-20T09:27:30.493Z,871
2018-12-20T09:30:33.229Z,2123
2018-12-20T09:33:31.253Z,2714
2018-12-20T09:36:31.094Z,2552
2018-12-20T09:39:30.952Z,2632
2018-12-20T09:42:30.816Z,2476
2018-12-20T09:45:30.663Z,2524
2018-12-20T09:48:31.469Z,1283
2018-12-20T09:51:31.256Z,994
2018-12-20T09:54:31.031Z,1425
2018-12-20T09:57:30.690Z,1509
2018-12-20T10:00:31.346Z,3505
2018-12-20T10:03:30.997Z,2669
2018-12-20T10:06:30.759Z,2129
2018-12-20T10:09:31.691Z,2699
2018-12-20T10:12:31.439Z,2707
2018-12-20T10:15:31.264Z,2063
2018-12-20T10:18:31.116Z,1509
2018-12-20T10:21:31.043Z,1436
2018-12-20T10:24:30.632Z,1225
2018-12-20T10:27:34.075Z,953
2018-12-20T10:30:31.108Z,982
2018-12-20T10:33:30.953Z,1342
2018-12-20T10:36:30.726Z,1932
2018-12-20T10:39:31.560Z,2488
2018-12-20T10:42:32.819Z,2814
2018-12-20T10:45:31.304Z,2961
2018-12-20T10:48:31.090Z,3142
2018-12-20T10:51:31.604Z,2596
2018-12-20T10:54:31.777Z,2954
2018-12-20T10:57:31.927Z,2185
2018-12-20T11:00:30.707Z,2294
2018-12-20T11:05:08.423Z,2503
2018-12-20T11:08:43.280Z,2829
2018-12-20T11:10:36.863Z,2674
2018-12-20T11:12:31.964Z,2708
2018-12-20T11:15:30.844Z,2527
2018-12-20T11:18:30.729Z,3882
2018-12-20T11:40:42.020Z,6113
2018-12-20T11:46:26.336Z,5716
2018-12-20T11:53:24.765Z,5226
2018-12-20T11:58:26.008Z,6373
2018-12-20T12:00:01.123Z,6159
2018-12-20T12:01:57.234Z,6078
2018-12-20T12:04:23.627Z,4960
2018-12-20T12:05:22.908Z,3884
2018-12-20T12:10:20.941Z,3744
2018-12-20T12:11:24.350Z,2793
2018-12-20T12:14:08.676Z,2942
2018-12-20T12:17:18.696Z,2843
2018-12-20T12:18:31.313Z,3649
2018-12-20T12:21:30.865Z,3981
2018-12-20T12:24:30.767Z,3388
2018-12-20T12:27:31.442Z,3624
2018-12-20T12:30:31.320Z,3858
2018-12-20T12:33:30.963Z,3532
2018-12-20T12:36:31.064Z,4324
2018-12-20T12:39:30.931Z,3918
2018-12-20T12:42:30.828Z,3998
2018-12-20T12:45:30.504Z,5088
2018-12-20T12:48:31.358Z,5172
2018-12-20T12:51:31.433Z,5771
2018-12-20T12:54:31.424Z,6918
2018-12-20T12:57:38.334Z,6180
2018-12-20T13:00:30.964Z,5710
2018-12-20T13:03:30.763Z,4363
2018-12-20T13:06:31.483Z,4389
2018-12-20T13:09:31.221Z,4767
2018-12-20T13:12:31.013Z,4351
2018-12-20T13:15:31.649Z,3803
2018-12-20T13:18:33.497Z,3234
2018-12-20T13:21:33.913Z,3183
2018-12-20T13:24:32.917Z,3498
2018-12-20T13:27:31.913Z,3357
2018-12-20T13:30:32.243Z,3529
2018-12-20T13:33:33.166Z,2894
2018-12-20T13:36:32.784Z,2558
2018-12-20T13:39:31.355Z,2373
2018-12-20T13:42:31.155Z,2128
2018-12-20T13:45:31.048Z,2029
2018-12-20T13:48:38.302Z,2089
2018-12-20T13:51:31.102Z,1552
2018-12-20T13:54:30.956Z,1411
2018-12-20T13:57:30.587Z,1637
2018-12-20T14:00:31.348Z,1877
2018-12-20T14:03:31.149Z,2097
2018-12-20T14:06:30.881Z,2039
2018-12-20T14:09:21.513Z,1812
2018-12-20T14:12:31.294Z,1559
2018-12-20T14:15:31.097Z,1532
2018-12-20T14:18:33.740Z,1523
2018-12-20T14:21:31.561Z,1231
2018-12-20T14:24:31.645Z,1202
2018-12-20T14:27:31.838Z,1146
2018-12-20T14:30:30.596Z,1208
2018-12-20T14:33:32.783Z,1186
2018-12-20T14:36:30.801Z,1138
2018-12-20T14:39:30.610Z,974
2018-12-20T14:42:31.416Z,893
2018-12-20T14:45:31.219Z,744
2018-12-20T14:48:42.197Z,819
2018-12-20T14:51:31.207Z,734
2018-12-20T14:54:31.044Z,1323
2018-12-20T14:57:31.037Z,1322
2018-12-20T15:00:30.933Z,781
2018-12-20T15:03:30.698Z,667
2018-12-20T15:06:31.531Z,592
2018-12-20T15:09:31.299Z,542
2018-12-20T15:12:31.062Z,490
2018-12-20T15:15:30.809Z,442
2018-12-20T15:18:32.669Z,411
2018-12-20T15:21:34.169Z,321
2018-12-20T15:24:31.076Z,242
2018-12-20T15:27:30.888Z,179
2018-12-20T15:30:30.745Z,137
2018-12-20T15:33:33.549Z,102
2018-12-20T15:36:30.620Z,79
2018-12-20T15:39:31.964Z,58
2018-12-20T15:42:31.061Z,40
2018-12-20T15:45:30.693Z,27
2018-12-20T15:48:31.396Z,18
2018-12-20T15:51:31.140Z,11
2018-12-20T15:54:30.971Z,7
2018-12-20T15:57:21.366Z,3
2018-12-20T16:00:31.134Z,2
2018-12-20T16:03:30.804Z,1
2018-12-20T16:06:30.498Z,1
2018-12-20T16:09:31.330Z,0
2018-12-20T16:12:30.999Z,0
2018-12-20T16:15:30.881Z,0
2018-12-20T16:18:30.862Z,0
2018-12-20T16:21:30.464Z,0
2018-12-20T16:24:31.173Z,0
2018-12-20T16:27:31.012Z,0
2018-12-20T16:30:30.886Z,0
2018-12-20T16:33:30.790Z,0
2018-12-20T16:36:41.599Z,0
2018-12-20T16:39:31.390Z,2
2018-12-20T16:42:31.092Z,2
2018-12-20T16:45:30.851Z,2
2018-12-20T16:48:30.510Z,2
2018-12-20T16:51:31.415Z,2
2018-12-20T16:54:31.251Z,2
2018-12-20T16:57:31.019Z,2
2018-12-20T17:00:30.631Z,2
2018-12-20T17:03:31.426Z,2
2018-12-20T17:06:31.497Z,2
2018-12-20T17:09:31.140Z,2
2018-12-20T17:12:30.711Z,2
2018-12-20T17:15:31.751Z,2
2018-12-20T17:18:30.917Z,2
2018-12-20T17:21:30.656Z,2
2018-12-20T17:24:36.382Z,2
2018-12-20T17:27:31.054Z,2
2018-12-20T17:30:31.511Z,2
2018-12-20T17:33:36.248Z,2
2018-12-20T17:36:30.921Z,2
2018-12-20T17:39:30.705Z,2
2018-12-20T17:42:31.702Z,2
2018-12-20T17:45:31.531Z,2
2018-12-20T17:48:31.947Z,2
2018-12-20T17:51:30.660Z,2
2018-12-20T17:54:31.283Z,2
2018-12-20T17:57:30.969Z,2
2018-12-20T18:00:30.628Z,2
2018-12-20T18:03:36.553Z,2
2018-12-20T18:06:31.267Z,2
2018-12-20T18:09:30.887Z,2
2018-12-20T18:12:30.765Z,2
2018-12-20T18:15:30.570Z,2
2018-12-20T18:18:31.657Z,2
2018-12-20T18:21:31.267Z,2
2018-12-20T18:24:30.781Z,2
2018-12-20T18:27:30.406Z,2
2018-12-20T18:30:31.232Z,2
2018-12-20T18:33:31.486Z,2
2018-12-20T18:36:31.280Z,2
2018-12-20T18:39:31.122Z,2
2018-12-20T18:42:30.938Z,2
2018-12-20T18:45:30.782Z,2
2018-12-20T18:48:30.819Z,2
2018-12-20T18:51:30.815Z,2
2018-12-20T18:54:31.009Z,2
2018-12-20T18:57:30.817Z,2
2018-12-20T19:00:30.869Z,2
2018-12-20T19:03:30.600Z,2
2018-12-20T19:06:31.333Z,2
2018-12-20T19:09:31.087Z,2
2018-12-20T19:12:31.429Z,2
2018-12-20T19:15:31.432Z,2
2018-12-20T19:18:31.339Z,2
2018-12-20T19:21:33.381Z,2
2018-12-20T19:24:37.025Z,2
2018-12-20T19:27:30.970Z,2
2018-12-20T19:30:30.554Z,2
2018-12-20T19:33:31.348Z,2
2018-12-20T19:36:31.498Z,2
2018-12-20T19:39:32.623Z,2
2018-12-20T19:42:31.405Z,2
2018-12-20T19:45:31.342Z,2
2018-12-20T19:48:32.405Z,2
2018-12-20T19:51:34.872Z,2
2018-12-20T19:54:31.850Z,2
2018-12-20T19:57:30.738Z,2
2018-12-20T20:00:31.619Z,2
2018-12-20T20:03:32.429Z,2
2018-12-20T20:06:31.781Z,2
2018-12-20T20:09:32.725Z,2
2018-12-20T20:12:30.408Z,2
2018-12-20T20:15:32.790Z,2
2018-12-20T20:18:31.335Z,2
2018-12-20T20:21:36.246Z,2
2018-12-20T20:24:37.003Z,2
2018-12-20T20:27:32.154Z,2
2018-12-20T20:30:32.362Z,2
2018-12-20T20:33:41.893Z,2
2018-12-20T20:36:31.046Z,2
2018-12-20T20:39:31.989Z,2
2018-12-20T20:42:32.270Z,2
2018-12-20T20:45:32.730Z,2
2018-12-20T20:48:35.999Z,2
2018-12-20T20:51:35.359Z,2
2018-12-20T20:54:36.236Z,2
2018-12-20T20:57:31.237Z,2
2018-12-20T21:00:31.438Z,2
2018-12-20T21:03:42.219Z,2
2018-12-20T21:06:31.201Z,2
2018-12-20T21:09:33.156Z,2
2018-12-20T21:12:43.610Z,2
2018-12-20T21:15:33.133Z,2
2018-12-20T21:18:37.949Z,2
2018-12-20T21:21:31.614Z,2
2018-12-20T21:24:33.622Z,2
2018-12-20T21:27:31.520Z,2
2018-12-20T21:30:33.531Z,2
2018-12-20T21:33:31.972Z,2
2018-12-20T21:36:31.300Z,2
2018-12-20T21:39:31.046Z,2
2018-12-20T21:42:30.795Z,2
2018-12-20T21:45:30.608Z,2
2018-12-20T21:48:31.370Z,2
2018-12-20T21:51:36.202Z,2
2018-12-20T21:54:31.048Z,2
2018-12-20T21:57:30.849Z,2
2018-12-20T22:00:30.418Z,2
2018-12-20T22:03:31.299Z,2
2018-12-20T22:06:31.019Z,2
2018-12-20T22:09:30.608Z,2
2018-12-20T22:12:32.211Z,2
2018-12-20T22:15:31.138Z,2
2018-12-20T22:18:30.988Z,2
2018-12-20T22:21:30.742Z,2
2018-12-20T22:24:31.393Z,2
2018-12-20T22:27:30.995Z,2
2018-12-20T22:30:30.653Z,2
2018-12-20T22:33:31.320Z,2
2018-12-20T22:36:30.919Z,2
2018-12-20T22:39:30.779Z,0
2018-12-20T22:42:30.314Z,0
2018-12-20T22:45:31.213Z,0
2018-12-20T22:48:31.218Z,0
2018-12-20T22:51:30.809Z,0
2018-12-20T22:54:30.434Z,0
2018-12-20T22:57:30.953Z,0
2018-12-20T23:00:30.757Z,0
2018-12-20T23:03:31.543Z,0
2018-12-20T23:06:31.279Z,0
2018-12-20T23:09:31.180Z,0
2018-12-20T23:12:30.770Z,0
2018-12-20T23:15:31.356Z,0
2018-12-20T23:18:31.222Z,0
2018-12-20T23:21:30.877Z,0
2018-12-20T23:24:30.526Z,0
2018-12-20T23:27:31.202Z,0
2018-12-20T23:30:30.715Z,0
2018-12-20T23:33:31.486Z,0
2018-12-20T23:36:31.139Z,0
2018-12-20T23:39:30.806Z,0
2018-12-20T23:42:30.279Z,0
2018-12-20T23:45:30.771Z,0
2018-12-20T23:48:31.292Z,0
2018-12-20T23:51:30.945Z,0
2018-12-20T23:54:30.463Z,0
2018-12-20T23:57:31.057Z,0
